Current Weather

Raleigh-Durham Intl

Raleigh/Durham, North Carolina (KRDU)

Report from: Friday, August 19, 2022 12:51 AM EDT
Current time: Friday, August 19, 2022 2:03 AM EDT

Nearby weather
Weather history
Weather forecast

Temperature23.3°C (73.9°F)
Dew point16.7°C (62.1°F)
Winds 5 kts (2.6 m/s, 5.8 mph) South-Southwest (210°)
Visibility10 mi. (16.1 km)
Clouds Few clouds 10,000 ft. (3,048 m)
Scattered clouds 13,000 ft. (3,962 m)
Scattered clouds 25,000 ft. (7,620 m)
Altimeter30.06 in.Hg (1018 mB)
Relative humidity66 %
Density altitude1,068 ft. (325 m)
Sea-level pressure101.7 kPa (1017 mB, 30.04 in.Hg)
Max temp last 24 hours31.1°C (88.0°F)
Min temp last 24 hours16.7°C (62.1°F)
Remarks Automated weather observing station with precipitation discriminator
Flight conditions Visual Meteorological Conditions
Raw dataKRDU 190451Z 21005KT 10SM FEW100 SCT130 SCT250 23/17 A3006 RMK AO2 SLP174 T02330167 403110167
An unhandled exception has occurred. See browser dev tools for details. Reload 🗙